createdAt,value
2018-10-17T00:02:13.619Z,99.90
2018-10-17T00:04:41.296Z,99.90
2018-10-17T00:07:09.029Z,99.90
2018-10-17T00:09:36.665Z,99.90
2018-10-17T00:12:04.467Z,99.90
2018-10-17T00:14:32.105Z,99.90
2018-10-17T00:16:59.780Z,99.90
2018-10-17T00:19:27.369Z,99.90
2018-10-17T00:21:55.083Z,99.90
2018-10-17T00:24:22.727Z,99.90
2018-10-17T00:26:50.388Z,99.90
2018-10-17T00:29:18.041Z,99.90
2018-10-17T00:31:45.713Z,99.90
2018-10-17T00:34:13.581Z,99.90
2018-10-17T00:36:41.236Z,99.90
2018-10-17T00:39:10.267Z,99.90
2018-10-17T00:41:38.018Z,99.90
2018-10-17T00:44:05.700Z,99.90
2018-10-17T00:46:33.402Z,99.90
2018-10-17T00:49:01.226Z,99.90
2018-10-17T00:51:28.875Z,99.90
2018-10-17T00:53:56.478Z,99.90
2018-10-17T00:56:24.162Z,99.90
2018-10-17T00:59:04.657Z,99.90
2018-10-17T01:01:32.230Z,99.90
2018-10-17T01:03:59.836Z,99.90
2018-10-17T01:06:27.463Z,99.90
2018-10-17T01:08:55.101Z,99.90
2018-10-17T01:11:22.784Z,99.90
2018-10-17T01:13:50.527Z,99.90
2018-10-17T01:16:18.160Z,99.90
2018-10-17T01:18:45.817Z,99.90
2018-10-17T01:21:13.409Z,99.90
2018-10-17T01:23:41.049Z,99.90
2018-10-17T01:26:08.664Z,99.90
2018-10-17T01:28:36.252Z,1.00
2018-10-17T01:31:04.305Z,99.90
2018-10-17T01:33:32.029Z,99.90
2018-10-17T01:35:59.639Z,99.90
2018-10-17T01:38:27.265Z,99.90
2018-10-17T01:40:55.031Z,99.90
2018-10-17T01:43:22.582Z,99.90
2018-10-17T01:45:50.825Z,99.90
2018-10-17T01:48:18.507Z,99.90
2018-10-17T01:50:46.111Z,99.90
2018-10-17T01:53:13.817Z,99.90
2018-10-17T01:55:41.534Z,99.90
2018-10-17T01:58:09.191Z,99.90
2018-10-17T02:00:36.782Z,1.00
2018-10-17T02:03:04.515Z,1.00
2018-10-17T02:05:32.147Z,99.90
2018-10-17T02:07:59.782Z,1.00
2018-10-17T02:10:27.415Z,99.90
2018-10-17T02:12:55.050Z,99.90
2018-10-17T02:15:22.623Z,99.90
2018-10-17T02:17:50.375Z,99.90
2018-10-17T02:20:17.979Z,99.90
2018-10-17T02:22:45.679Z,99.90
2018-10-17T02:25:13.402Z,99.90
2018-10-17T02:27:40.940Z,99.90
2018-10-17T02:30:08.744Z,99.90
2018-10-17T02:32:36.260Z,99.90
2018-10-17T02:35:09.724Z,99.90
2018-10-17T02:37:37.306Z,99.90
2018-10-17T02:40:05.250Z,1.00
2018-10-17T02:42:32.852Z,1.00
2018-10-17T02:45:00.486Z,1.00
2018-10-17T02:47:28.116Z,1.00
2018-10-17T02:49:55.750Z,1.00
2018-10-17T02:52:23.480Z,99.90
2018-10-17T02:54:51.138Z,99.90
2018-10-17T02:57:18.810Z,1.00
2018-10-17T02:59:46.433Z,1.00
2018-10-17T03:02:14.174Z,1.00
2018-10-17T03:04:41.802Z,1.00
2018-10-17T03:07:09.619Z,1.00
2018-10-17T03:09:37.262Z,1.00
2018-10-17T03:12:05.049Z,1.00
2018-10-17T03:14:32.666Z,1.00
2018-10-17T03:17:00.308Z,1.00
2018-10-17T03:19:27.920Z,1.00
2018-10-17T03:21:55.588Z,1.00
2018-10-17T03:24:23.323Z,1.00
2018-10-17T03:26:50.986Z,1.00
2018-10-17T03:29:18.839Z,1.00
2018-10-17T03:31:46.425Z,1.00
2018-10-17T03:34:14.214Z,1.00
2018-10-17T03:36:41.899Z,55.60
2018-10-17T03:39:11.182Z,29.70
2018-10-17T03:41:39.150Z,1.00
2018-10-17T03:44:07.722Z,1.00
2018-10-17T03:46:35.370Z,1.00
2018-10-17T03:49:03.285Z,1.00
2018-10-17T03:51:31.020Z,1.00
2018-10-17T03:53:58.997Z,1.00
2018-10-17T03:56:26.871Z,1.00
2018-10-17T03:58:54.663Z,1.00
2018-10-17T04:01:22.275Z,94.20
2018-10-17T04:03:49.992Z,99.90
2018-10-17T04:06:17.598Z,4.80
2018-10-17T04:08:45.303Z,1.00
2018-10-17T04:11:13.081Z,1.00
2018-10-17T04:13:40.655Z,1.00
2018-10-17T04:16:08.350Z,1.00
2018-10-17T04:18:36.407Z,1.00
2018-10-17T04:21:04.836Z,1.00
2018-10-17T04:23:32.466Z,1.00
2018-10-17T04:26:00.127Z,1.00
2018-10-17T04:28:27.731Z,1.00
2018-10-17T04:30:55.391Z,1.00
2018-10-17T04:33:23.044Z,59.30
2018-10-17T04:35:50.752Z,27.70
2018-10-17T04:38:18.415Z,1.00
2018-10-17T04:40:46.006Z,1.00
2018-10-17T04:43:13.639Z,1.00
2018-10-17T04:45:41.322Z,1.00
2018-10-17T04:48:09.081Z,22.60
2018-10-17T04:50:36.710Z,99.90
2018-10-17T04:53:04.398Z,99.90
2018-10-17T04:55:31.990Z,99.90
2018-10-17T04:57:59.620Z,1.00
2018-10-17T05:00:27.234Z,99.90
2018-10-17T05:02:54.843Z,99.90
2018-10-17T05:05:22.480Z,1.00
2018-10-17T05:07:50.090Z,99.90
2018-10-17T05:10:17.711Z,99.90
2018-10-17T05:12:45.439Z,99.90
2018-10-17T05:15:13.103Z,99.90
2018-10-17T05:17:40.828Z,99.90
2018-10-17T05:20:08.576Z,99.90
2018-10-17T05:22:36.191Z,99.90
2018-10-17T05:25:04.954Z,99.90
2018-10-17T05:27:32.534Z,49.80
2018-10-17T05:30:00.203Z,99.90
2018-10-17T05:32:27.869Z,92.40
2018-10-17T05:34:56.320Z,84.10
2018-10-17T05:37:24.031Z,87.80
2018-10-17T05:39:51.640Z,7.40
2018-10-17T05:42:19.238Z,8.10
2018-10-17T05:44:46.879Z,1.00
2018-10-17T05:47:14.593Z,1.00
2018-10-17T05:49:42.351Z,1.00
2018-10-17T05:52:09.955Z,1.00
2018-10-17T05:54:37.610Z,1.00
2018-10-17T05:57:05.727Z,91.90
2018-10-17T05:59:33.393Z,78.20
2018-10-17T06:02:04.132Z,55.50
2018-10-17T06:04:31.643Z,12.80
2018-10-17T06:06:59.436Z,1.00
2018-10-17T06:09:27.051Z,1.00
2018-10-17T06:11:54.798Z,99.90
2018-10-17T06:14:22.490Z,99.90
2018-10-17T06:16:50.139Z,99.90
2018-10-17T06:19:17.746Z,99.90
2018-10-17T06:21:45.440Z,99.90
2018-10-17T06:24:13.058Z,99.90
2018-10-17T06:26:40.780Z,99.90
2018-10-17T06:29:08.534Z,99.90
2018-10-17T06:31:36.070Z,99.90
2018-10-17T06:34:03.734Z,99.90
2018-10-17T06:36:31.427Z,99.90
2018-10-17T06:38:59.047Z,99.90
2018-10-17T06:41:26.778Z,99.90
2018-10-17T06:43:54.387Z,99.90
2018-10-17T06:46:22.016Z,99.90
2018-10-17T06:48:49.753Z,99.90
2018-10-17T06:51:17.374Z,99.90
2018-10-17T06:53:45.051Z,99.90
2018-10-17T06:56:12.642Z,99.90
2018-10-17T06:58:40.224Z,99.90
2018-10-17T07:01:07.904Z,99.90
2018-10-17T07:03:35.475Z,94.60
2018-10-17T07:06:03.196Z,55.20
2018-10-17T07:08:31.029Z,99.90
2018-10-17T07:10:58.595Z,99.90
2018-10-17T07:13:26.301Z,90.80
2018-10-17T07:15:53.992Z,73.80
2018-10-17T07:18:21.729Z,54.70
2018-10-17T07:20:49.363Z,99.90
2018-10-17T07:23:17.106Z,99.90
2018-10-17T07:25:45.451Z,90.20
2018-10-17T07:28:13.290Z,56.20
2018-10-17T07:30:41.044Z,99.90
2018-10-17T07:33:08.935Z,99.90
2018-10-17T07:35:36.627Z,89.00
2018-10-17T07:38:05.136Z,93.90
2018-10-17T07:40:32.946Z,1.00
2018-10-17T07:43:00.626Z,1.00
2018-10-17T07:45:28.256Z,1.00
2018-10-17T07:47:55.888Z,1.00
2018-10-17T07:50:23.494Z,1.00
2018-10-17T07:52:51.214Z,1.00
2018-10-17T07:55:18.804Z,1.00
2018-10-17T07:57:46.405Z,1.00
2018-10-17T08:00:14.409Z,1.00
2018-10-17T08:02:41.968Z,1.00
2018-10-17T08:05:10.112Z,99.90
2018-10-17T08:07:37.716Z,99.90
2018-10-17T08:10:07.478Z,99.90
2018-10-17T08:12:35.055Z,99.90
2018-10-17T08:15:02.785Z,99.90
2018-10-17T08:17:30.503Z,99.90
2018-10-17T08:19:58.202Z,99.90
2018-10-17T08:22:25.858Z,99.90
2018-10-17T08:24:53.490Z,99.90
2018-10-17T08:27:21.133Z,99.90
2018-10-17T08:29:48.906Z,99.90
2018-10-17T08:32:16.507Z,99.90
2018-10-17T08:34:44.123Z,99.90
2018-10-17T08:37:12.102Z,99.90
2018-10-17T08:39:39.315Z,99.90
2018-10-17T08:42:07.191Z,99.90
2018-10-17T08:44:34.878Z,99.90
2018-10-17T08:47:02.541Z,99.90
2018-10-17T08:49:30.244Z,99.90
2018-10-17T08:51:57.877Z,99.90
2018-10-17T08:54:25.475Z,99.90
2018-10-17T08:56:53.104Z,99.90
2018-10-17T08:59:20.806Z,99.90
2018-10-17T09:01:48.492Z,99.90
2018-10-17T09:04:16.102Z,99.90
2018-10-17T09:06:43.719Z,99.90
2018-10-17T09:09:12.794Z,99.90
2018-10-17T09:11:40.880Z,99.90
2018-10-17T09:14:08.919Z,99.90
2018-10-17T09:16:36.559Z,99.90
2018-10-17T09:19:04.270Z,99.90
2018-10-17T09:21:32.122Z,99.90
2018-10-17T09:24:00.188Z,99.90
2018-10-17T09:26:27.802Z,99.90
2018-10-17T09:28:55.434Z,99.90
2018-10-17T09:31:23.054Z,99.90
2018-10-17T09:33:50.669Z,99.90
2018-10-17T09:36:18.327Z,99.90
2018-10-17T09:38:46.090Z,99.90
2018-10-17T09:41:13.742Z,99.90
2018-10-17T09:43:41.623Z,99.90
2018-10-17T09:46:17.247Z,99.90
2018-10-17T09:48:44.921Z,99.90
2018-10-17T09:51:12.538Z,99.90
2018-10-17T09:53:40.150Z,99.90
2018-10-17T09:56:08.870Z,99.90
2018-10-17T09:58:36.516Z,99.90
2018-10-17T10:01:09.971Z,99.90
2018-10-17T10:03:37.602Z,99.90
2018-10-17T10:06:05.380Z,99.90
2018-10-17T10:08:32.974Z,99.90
2018-10-17T10:11:00.609Z,99.90
2018-10-17T10:13:28.228Z,99.90
2018-10-17T10:15:55.924Z,99.90
2018-10-17T10:18:23.638Z,99.90
2018-10-17T10:20:51.359Z,99.90
2018-10-17T10:23:19.052Z,99.90
2018-10-17T10:25:46.642Z,99.90
2018-10-17T10:28:14.379Z,99.90
2018-10-17T10:30:41.955Z,99.90
2018-10-17T10:33:09.604Z,99.90
2018-10-17T10:35:37.268Z,99.90
2018-10-17T10:38:05.598Z,99.90
2018-10-17T10:40:33.930Z,99.90
2018-10-17T10:43:01.610Z,99.90
2018-10-17T10:45:29.277Z,99.90
2018-10-17T10:47:57.031Z,99.90
2018-10-17T10:50:24.611Z,99.90
2018-10-17T10:52:52.248Z,99.90
2018-10-17T10:55:19.910Z,99.90
2018-10-17T10:57:47.536Z,99.90
2018-10-17T11:00:15.266Z,99.90
2018-10-17T11:02:42.867Z,99.90
2018-10-17T11:05:10.659Z,99.90
2018-10-17T11:07:38.282Z,99.90
2018-10-17T11:10:06.081Z,99.90
2018-10-17T11:12:33.690Z,99.90
2018-10-17T11:15:01.578Z,99.90
2018-10-17T11:17:29.090Z,99.90
2018-10-17T11:19:56.740Z,99.90
2018-10-17T11:22:24.398Z,99.90
2018-10-17T11:24:52.074Z,99.90
2018-10-17T11:27:19.784Z,99.90
2018-10-17T11:29:47.443Z,99.90
2018-10-17T11:32:15.058Z,99.90
2018-10-17T11:34:42.725Z,99.90
2018-10-17T11:37:10.346Z,99.90
2018-10-17T11:39:37.976Z,99.90
2018-10-17T11:42:05.686Z,99.90
2018-10-17T11:44:33.294Z,99.90
2018-10-17T11:47:00.947Z,99.90
2018-10-17T11:49:28.558Z,99.90
2018-10-17T11:51:56.238Z,99.90
2018-10-17T11:54:23.916Z,99.90
2018-10-17T11:56:51.542Z,99.90
2018-10-17T11:59:19.283Z,99.90
2018-10-17T12:01:46.830Z,99.90
2018-10-17T12:04:14.720Z,99.90
2018-10-17T12:06:42.111Z,99.90
2018-10-17T12:09:09.999Z,99.90
2018-10-17T12:11:37.607Z,99.90
2018-10-17T12:14:05.510Z,99.90
2018-10-17T12:16:33.152Z,99.90
2018-10-17T12:19:00.774Z,99.90
2018-10-17T12:21:28.410Z,99.90
2018-10-17T12:23:56.044Z,99.90
2018-10-17T12:26:23.706Z,99.90
2018-10-17T12:28:51.422Z,99.90
2018-10-17T12:31:19.066Z,99.90
2018-10-17T12:33:46.715Z,99.90
2018-10-17T12:36:14.355Z,99.90
2018-10-17T12:38:41.969Z,99.90
2018-10-17T12:41:09.803Z,99.90
2018-10-17T12:43:37.314Z,99.90
2018-10-17T12:46:04.982Z,99.90
2018-10-17T12:48:32.615Z,99.90
2018-10-17T12:51:00.291Z,99.90
2018-10-17T12:53:27.988Z,99.90
2018-10-17T12:55:55.666Z,99.90
2018-10-17T12:58:23.262Z,99.90
2018-10-17T13:00:50.948Z,99.90
2018-10-17T13:03:18.735Z,99.90
2018-10-17T13:05:46.382Z,99.90
2018-10-17T13:08:14.047Z,99.90
2018-10-17T13:10:41.763Z,99.90
2018-10-17T13:13:09.483Z,99.90
2018-10-17T13:15:37.098Z,99.90
2018-10-17T13:18:05.052Z,99.90
2018-10-17T13:20:32.717Z,99.90
2018-10-17T13:23:00.578Z,99.90
2018-10-17T13:25:28.258Z,99.90
2018-10-17T13:27:55.924Z,99.90
2018-10-17T13:30:23.566Z,99.90
2018-10-17T13:32:51.199Z,99.90
2018-10-17T13:35:18.869Z,99.90
2018-10-17T13:37:46.458Z,99.90
2018-10-17T13:40:14.535Z,99.90
2018-10-17T13:42:42.158Z,99.90
2018-10-17T13:45:09.767Z,99.90
2018-10-17T13:47:37.394Z,99.90
2018-10-17T13:50:05.204Z,99.90
2018-10-17T13:52:32.835Z,99.90
2018-10-17T13:55:00.524Z,99.90
2018-10-17T13:57:28.183Z,99.90
2018-10-17T13:59:56.028Z,99.90
2018-10-17T14:02:24.057Z,99.90
2018-10-17T14:04:51.826Z,99.90
2018-10-17T14:07:19.627Z,99.90
2018-10-17T14:09:47.144Z,99.90
2018-10-17T14:12:15.048Z,99.90
2018-10-17T14:14:42.761Z,99.90
2018-10-17T14:17:10.398Z,99.90
2018-10-17T14:19:38.239Z,99.90
2018-10-17T14:22:06.465Z,99.90
2018-10-17T14:24:34.146Z,99.90
2018-10-17T14:27:01.936Z,99.90
2018-10-17T14:29:29.799Z,99.90
2018-10-17T14:31:57.438Z,99.90
2018-10-17T14:34:25.037Z,99.90
2018-10-17T14:36:52.715Z,99.90
2018-10-17T14:39:20.458Z,99.90
2018-10-17T14:41:48.145Z,99.90
2018-10-17T14:44:15.763Z,99.90
2018-10-17T14:46:43.332Z,99.90
2018-10-17T14:49:11.152Z,99.90
2018-10-17T14:51:39.091Z,99.90
2018-10-17T14:54:06.735Z,99.90
2018-10-17T14:56:34.421Z,99.90
2018-10-17T14:59:02.216Z,99.90
2018-10-17T15:01:30.181Z,99.90
2018-10-17T15:03:57.819Z,99.90
2018-10-17T15:06:25.411Z,99.90
2018-10-17T15:08:53.040Z,99.90
2018-10-17T15:11:20.903Z,99.90
2018-10-17T15:13:48.325Z,99.90
2018-10-17T15:16:16.155Z,99.90
2018-10-17T15:18:43.803Z,99.90
2018-10-17T15:21:11.519Z,99.90
2018-10-17T15:23:39.239Z,99.90
2018-10-17T15:26:06.870Z,99.90
2018-10-17T15:28:34.477Z,99.90
2018-10-17T15:31:02.151Z,99.90
2018-10-17T15:33:29.770Z,99.90
2018-10-17T15:35:57.382Z,99.90
2018-10-17T15:38:25.023Z,99.90
2018-10-17T15:40:52.779Z,99.90
2018-10-17T15:43:20.507Z,99.90
2018-10-17T15:45:48.682Z,99.90
2018-10-17T15:48:16.350Z,99.90
2018-10-17T15:50:43.957Z,99.90
2018-10-17T15:53:11.996Z,99.90
2018-10-17T15:55:39.539Z,99.90
2018-10-17T15:58:07.180Z,99.90
2018-10-17T16:00:34.830Z,99.90
2018-10-17T16:03:02.492Z,99.90
2018-10-17T16:05:30.197Z,99.90
2018-10-17T16:07:57.870Z,99.90
2018-10-17T16:10:25.477Z,99.90
2018-10-17T16:12:53.095Z,99.90
2018-10-17T16:15:20.738Z,99.90
2018-10-17T16:17:48.396Z,99.90
2018-10-17T16:20:16.110Z,99.90
2018-10-17T16:22:43.779Z,99.90
2018-10-17T16:25:11.391Z,99.90
2018-10-17T16:27:39.032Z,99.90
2018-10-17T16:30:09.011Z,99.90
2018-10-17T16:32:36.707Z,99.90
2018-10-17T16:35:05.137Z,99.90
2018-10-17T16:37:32.782Z,99.90
2018-10-17T16:40:00.385Z,99.90
2018-10-17T16:42:28.081Z,99.90
2018-10-17T16:44:55.691Z,99.90
2018-10-17T16:47:23.421Z,99.90
2018-10-17T16:49:51.106Z,99.90
2018-10-17T16:52:18.734Z,99.90
2018-10-17T16:54:46.394Z,99.90
2018-10-17T16:57:14.076Z,99.90
2018-10-17T16:59:41.648Z,99.90
2018-10-17T17:02:09.302Z,99.90
2018-10-17T17:04:37.023Z,99.90
2018-10-17T17:07:04.856Z,99.90
2018-10-17T17:09:32.518Z,99.90
2018-10-17T17:12:00.205Z,99.90
2018-10-17T17:14:27.927Z,99.90
2018-10-17T17:16:55.607Z,99.90
2018-10-17T17:19:23.339Z,99.90
2018-10-17T17:21:50.935Z,99.90
2018-10-17T17:24:18.639Z,99.90
2018-10-17T17:26:46.383Z,99.90
2018-10-17T17:29:14.051Z,99.90
2018-10-17T17:31:41.675Z,99.90
2018-10-17T17:34:09.324Z,99.90
2018-10-17T17:36:36.957Z,99.90
2018-10-17T17:39:06.808Z,99.90
2018-10-17T17:41:34.447Z,99.90
2018-10-17T17:44:02.073Z,99.90
2018-10-17T17:46:29.820Z,99.90
2018-10-17T17:48:57.458Z,99.90
2018-10-17T17:51:25.148Z,99.90
2018-10-17T17:53:52.782Z,99.90
2018-10-17T17:56:20.434Z,99.90
2018-10-17T17:58:48.103Z,99.90
2018-10-17T18:01:15.757Z,99.90
2018-10-17T18:03:43.427Z,99.90
2018-10-17T18:06:11.063Z,99.90
2018-10-17T18:08:38.723Z,99.90
2018-10-17T18:11:16.326Z,99.90
2018-10-17T18:13:44.241Z,99.90
2018-10-17T18:16:11.967Z,99.90
2018-10-17T18:18:39.617Z,99.90
2018-10-17T18:21:07.277Z,99.90
2018-10-17T18:23:34.938Z,99.90
2018-10-17T18:26:02.690Z,99.90
2018-10-17T18:28:30.342Z,99.90
2018-10-17T18:30:58.015Z,99.90
2018-10-17T18:33:25.843Z,99.90
2018-10-17T18:35:53.481Z,99.90
2018-10-17T18:38:21.108Z,99.90
2018-10-17T18:40:48.936Z,99.90
2018-10-17T18:43:16.583Z,99.90
2018-10-17T18:45:44.447Z,99.90
2018-10-17T18:48:11.942Z,99.90
2018-10-17T18:50:39.583Z,99.90
2018-10-17T18:53:07.312Z,99.90
2018-10-17T18:55:34.953Z,99.90
2018-10-17T18:58:02.710Z,99.90
2018-10-17T19:00:30.373Z,99.90
2018-10-17T19:02:58.107Z,99.90
2018-10-17T19:05:25.718Z,99.90
2018-10-17T19:07:53.382Z,99.90
2018-10-17T19:10:21.012Z,99.90
2018-10-17T19:12:48.703Z,99.90
2018-10-17T19:15:16.487Z,99.90
2018-10-17T19:17:44.082Z,99.90
2018-10-17T19:20:11.748Z,99.90
2018-10-17T19:22:39.463Z,99.90
2018-10-17T19:25:07.475Z,99.90
2018-10-17T19:27:36.268Z,99.90
2018-10-17T19:30:05.040Z,99.90
2018-10-17T19:32:32.659Z,99.90
2018-10-17T19:35:00.424Z,99.90
2018-10-17T19:37:28.218Z,99.90
2018-10-17T19:39:56.730Z,99.90
2018-10-17T19:42:24.345Z,99.90
2018-10-17T19:44:52.180Z,99.90
2018-10-17T19:47:19.833Z,99.90
2018-10-17T19:49:47.451Z,99.90
2018-10-17T19:52:15.144Z,99.90
2018-10-17T19:54:42.805Z,99.90
2018-10-17T19:57:10.523Z,99.90
2018-10-17T19:59:38.173Z,99.90
2018-10-17T20:02:06.307Z,99.90
2018-10-17T20:04:33.893Z,99.90
2018-10-17T20:07:01.568Z,99.90
2018-10-17T20:09:29.232Z,99.90
2018-10-17T20:11:56.879Z,99.90
2018-10-17T20:14:24.540Z,99.90
2018-10-17T20:16:52.396Z,99.90
2018-10-17T20:19:20.043Z,99.90
2018-10-17T20:21:47.727Z,99.90
2018-10-17T20:24:15.367Z,99.90
2018-10-17T20:26:43.026Z,99.90
2018-10-17T20:29:10.700Z,99.90
2018-10-17T20:31:38.405Z,99.90
2018-10-17T20:34:06.095Z,99.90
2018-10-17T20:36:33.892Z,99.90
2018-10-17T20:39:01.539Z,99.90
2018-10-17T20:41:29.199Z,99.90
2018-10-17T20:43:57.418Z,99.90
2018-10-17T20:46:25.049Z,99.90
2018-10-17T20:48:52.750Z,99.90
2018-10-17T20:51:20.411Z,99.90
2018-10-17T20:53:48.102Z,99.90
2018-10-17T20:56:15.825Z,99.90
2018-10-17T20:58:43.447Z,99.90
2018-10-17T21:01:11.097Z,99.90
2018-10-17T21:03:38.747Z,99.90
2018-10-17T21:06:06.365Z,99.90
2018-10-17T21:08:34.045Z,99.90
2018-10-17T21:11:01.669Z,99.90
2018-10-17T21:13:29.306Z,99.90
2018-10-17T21:15:56.966Z,99.90
2018-10-17T21:18:24.697Z,99.90
2018-10-17T21:20:52.239Z,99.90
2018-10-17T21:23:19.835Z,99.90
2018-10-17T21:25:47.547Z,99.90
2018-10-17T21:28:15.150Z,99.90
2018-10-17T21:30:42.809Z,99.90
2018-10-17T21:33:10.459Z,99.90
2018-10-17T21:35:38.121Z,99.90
2018-10-17T21:38:05.776Z,99.90
2018-10-17T21:40:33.415Z,99.90
2018-10-17T21:43:01.043Z,99.90
2018-10-17T21:45:28.725Z,99.90
2018-10-17T21:47:56.355Z,99.90
2018-10-17T21:50:23.995Z,99.90
2018-10-17T21:52:51.613Z,99.90
2018-10-17T21:55:19.258Z,99.90
2018-10-17T21:57:46.982Z,99.90
2018-10-17T22:00:14.654Z,99.90
2018-10-17T22:02:42.243Z,99.90
2018-10-17T22:05:10.596Z,99.90
2018-10-17T22:07:38.203Z,99.90
2018-10-17T22:10:06.643Z,99.90
2018-10-17T22:12:34.381Z,99.90
2018-10-17T22:15:02.152Z,99.90
2018-10-17T22:17:30.366Z,99.90
2018-10-17T22:19:58.110Z,99.90
2018-10-17T22:22:26.374Z,99.90
2018-10-17T22:24:54.682Z,99.90
2018-10-17T22:27:22.523Z,99.90
2018-10-17T22:29:50.205Z,99.90
2018-10-17T22:32:17.856Z,99.90
2018-10-17T22:34:45.838Z,99.90
2018-10-17T22:37:13.486Z,99.90
2018-10-17T22:39:41.150Z,1.00
2018-10-17T22:42:08.811Z,1.00
2018-10-17T22:44:36.575Z,1.00
2018-10-17T22:47:04.966Z,1.00
2018-10-17T22:49:32.596Z,1.00
2018-10-17T22:52:00.222Z,1.00
2018-10-17T22:54:28.038Z,1.00
2018-10-17T22:56:55.722Z,1.00
2018-10-17T22:59:23.308Z,1.00
2018-10-17T23:01:51.001Z,1.00
2018-10-17T23:04:18.671Z,1.00
2018-10-17T23:06:46.459Z,1.00
2018-10-17T23:09:15.071Z,1.00
2018-10-17T23:11:43.446Z,1.00
2018-10-17T23:14:11.474Z,1.00
2018-10-17T23:16:40.000Z,1.00
2018-10-17T23:19:08.536Z,1.00
2018-10-17T23:21:36.234Z,1.00
2018-10-17T23:24:03.934Z,1.00
2018-10-17T23:26:32.344Z,1.00
2018-10-17T23:28:59.947Z,1.00
2018-10-17T23:31:27.561Z,1.00
2018-10-17T23:33:55.144Z,1.00
2018-10-17T23:36:23.049Z,1.00
2018-10-17T23:38:51.235Z,1.00
2018-10-17T23:41:19.047Z,1.00
2018-10-17T23:43:46.840Z,1.00
2018-10-17T23:46:14.503Z,1.00
2018-10-17T23:48:42.187Z,1.00
2018-10-17T23:51:10.136Z,1.00
2018-10-17T23:53:37.819Z,1.00
2018-10-17T23:56:05.697Z,1.00
2018-10-17T23:58:33.324Z,1.00
